EJU857Y LFLL-LFKF
Flight info
| Callsign | EJU857Y |
|---|---|
| Flight time | 0h 58m |
| Altitude | 35000 |
| Route | ROMAM T43 BEPER DCT RETNO DCT KOLON DCT OMARD M623 VAREK |
| Aircraft | A320/M-SDE3FGHIRWY/LB1 |
Departure
| Time | 2026-04-15 08:53 |
|---|---|
| Airport | Lyon Saint-Exupéry Airport (LFLL) |
Arrival
| Time | 2026-04-15 09:52 |
|---|---|
| Airport | Figari Sud-Corse Airport (LFKF) |
| Time | Latitude | Longitude | Altitude | Speed | Heading |
|---|---|---|---|---|---|
| 2026-04-15 08:38 | 45.71516 | 5.08177 | 802 ft | 0 kts | 15° |
| 2026-04-15 08:45 | 45.71506 | 5.08173 | 802 ft | 4 kts | 15° |
| 2026-04-15 08:45 | 45.71480 | 5.08163 | 802 ft | 4 kts | 15° |
| 2026-04-15 08:45 | 45.71454 | 5.08152 | 802 ft | 4 kts | 26° |
| 2026-04-15 08:46 | 45.71439 | 5.08133 | 802 ft | 4 kts | 97° |
| 2026-04-15 08:46 | 45.71443 | 5.08106 | 802 ft | 2 kts | 104° |
| 2026-04-15 08:46 | 45.71444 | 5.08103 | 802 ft | 1 kts | 104° |
| 2026-04-15 08:48 | 45.71443 | 5.08105 | 802 ft | 3 kts | 104° |
| 2026-04-15 08:49 | 45.71433 | 5.08163 | 802 ft | 6 kts | 104° |
| 2026-04-15 08:49 | 45.71419 | 5.08242 | 803 ft | 12 kts | 103° |
| 2026-04-15 08:49 | 45.71407 | 5.08349 | 804 ft | 10 kts | 87° |
| 2026-04-15 08:49 | 45.71416 | 5.08458 | 807 ft | 12 kts | 85° |
| 2026-04-15 08:50 | 45.71375 | 5.08532 | 811 ft | 12 kts | 172° |
| 2026-04-15 08:50 | 45.71272 | 5.08546 | 813 ft | 14 kts | 175° |
| 2026-04-15 08:50 | 45.71184 | 5.08558 | 812 ft | 11 kts | 172° |
| 2026-04-15 08:50 | 45.71126 | 5.08614 | 818 ft | 10 kts | 123° |
| 2026-04-15 08:51 | 45.71109 | 5.08689 | 817 ft | 7 kts | 104° |
| 2026-04-15 08:51 | 45.71100 | 5.08743 | 818 ft | 5 kts | 104° |
| 2026-04-15 08:51 | 45.71092 | 5.08782 | 819 ft | 4 kts | 104° |
| 2026-04-15 08:51 | 45.71087 | 5.08812 | 819 ft | 4 kts | 104° |
| 2026-04-15 08:52 | 45.71078 | 5.08862 | 820 ft | 4 kts | 104° |
| 2026-04-15 08:52 | 45.71076 | 5.08890 | 817 ft | 1 kts | 92° |
| 2026-04-15 08:52 | 45.71076 | 5.08914 | 821 ft | 9 kts | 88° |
| 2026-04-15 08:52 | 45.71082 | 5.09015 | 821 ft | 10 kts | 82° |
| 2026-04-15 08:53 | 45.71151 | 5.09025 | 817 ft | 25 kts | 354° |
| 2026-04-15 08:53 | 45.71633 | 5.08965 | 813 ft | 109 kts | 355° |
| 2026-04-15 08:53 | 45.72624 | 5.08843 | 818 ft | 171 kts | 355° |
| 2026-04-15 08:53 | 45.73800 | 5.08698 | 1707 ft | 168 kts | 354° |
| 2026-04-15 08:54 | 45.74969 | 5.08549 | 2591 ft | 167 kts | 355° |
| 2026-04-15 08:54 | 45.76140 | 5.08411 | 3233 ft | 176 kts | 355° |
| 2026-04-15 08:54 | 45.77439 | 5.08266 | 3625 ft | 199 kts | 356° |
| 2026-04-15 08:54 | 45.78910 | 5.08098 | 4070 ft | 222 kts | 355° |
| 2026-04-15 08:55 | 45.80491 | 5.07918 | 4869 ft | 232 kts | 355° |
| 2026-04-15 08:55 | 45.82120 | 5.07817 | 5721 ft | 237 kts | 6° |
| 2026-04-15 08:55 | 45.83620 | 5.08785 | 6553 ft | 244 kts | 44° |
| 2026-04-15 08:55 | 45.84425 | 5.10939 | 7264 ft | 255 kts | 81° |
| 2026-04-15 08:56 | 45.84154 | 5.13426 | 8139 ft | 258 kts | 117° |
| 2026-04-15 08:56 | 45.82908 | 5.15291 | 8904 ft | 270 kts | 147° |
| 2026-04-15 08:56 | 45.81108 | 5.16291 | 9434 ft | 286 kts | 173° |
| 2026-04-15 08:56 | 45.79089 | 5.16425 | 10210 ft | 293 kts | 179° |
| 2026-04-15 08:57 | 45.76990 | 5.16453 | 10671 ft | 313 kts | 180° |
| 2026-04-15 08:57 | 45.74732 | 5.16438 | 10955 ft | 336 kts | 180° |
| 2026-04-15 08:57 | 45.72342 | 5.16408 | 11467 ft | 349 kts | 180° |
| 2026-04-15 08:57 | 45.69892 | 5.16380 | 12169 ft | 355 kts | 180° |
| 2026-04-15 08:58 | 45.67410 | 5.16362 | 12923 ft | 359 kts | 180° |
| 2026-04-15 08:58 | 45.62340 | 5.16351 | 14106 ft | 370 kts | 180° |
| 2026-04-15 08:58 | 45.59786 | 5.16355 | 14716 ft | 373 kts | 179° |
| 2026-04-15 08:59 | 45.57177 | 5.16359 | 15389 ft | 376 kts | 179° |
| 2026-04-15 08:59 | 45.54540 | 5.16361 | 16053 ft | 380 kts | 179° |
| 2026-04-15 08:59 | 45.51882 | 5.16360 | 16688 ft | 385 kts | 179° |
| 2026-04-15 08:59 | 45.49177 | 5.16358 | 17317 ft | 389 kts | 179° |
| 2026-04-15 09:00 | 45.46457 | 5.16353 | 17943 ft | 393 kts | 179° |
| 2026-04-15 09:00 | 45.43694 | 5.16346 | 18525 ft | 399 kts | 179° |
| 2026-04-15 09:00 | 45.40908 | 5.16343 | 19032 ft | 403 kts | 179° |
| 2026-04-15 09:00 | 45.38082 | 5.16343 | 19564 ft | 407 kts | 179° |
| 2026-04-15 09:01 | 45.35237 | 5.16344 | 20080 ft | 411 kts | 179° |
| 2026-04-15 09:01 | 45.32365 | 5.16347 | 20597 ft | 415 kts | 179° |
| 2026-04-15 09:01 | 45.29503 | 5.16351 | 21099 ft | 418 kts | 179° |
| 2026-04-15 09:01 | 45.26578 | 5.16355 | 21601 ft | 422 kts | 179° |
| 2026-04-15 09:02 | 45.23618 | 5.16356 | 22075 ft | 427 kts | 179° |
| 2026-04-15 09:02 | 45.20635 | 5.16354 | 22542 ft | 431 kts | 179° |
| 2026-04-15 09:02 | 45.17629 | 5.16352 | 23005 ft | 435 kts | 179° |
| 2026-04-15 09:02 | 45.14587 | 5.16349 | 23469 ft | 438 kts | 179° |
| 2026-04-15 09:03 | 45.11525 | 5.16347 | 23911 ft | 442 kts | 179° |
| 2026-04-15 09:03 | 45.08439 | 5.16413 | 24288 ft | 445 kts | 176° |
| 2026-04-15 09:03 | 45.05334 | 5.16652 | 24664 ft | 448 kts | 174° |
| 2026-04-15 09:03 | 45.02214 | 5.17019 | 25020 ft | 451 kts | 173° |
| 2026-04-15 09:04 | 44.99076 | 5.17451 | 25410 ft | 454 kts | 173° |
| 2026-04-15 09:04 | 44.95923 | 5.17889 | 25781 ft | 457 kts | 173° |
| 2026-04-15 09:04 | 44.92745 | 5.18305 | 26156 ft | 460 kts | 174° |
| 2026-04-15 09:04 | 44.89537 | 5.18690 | 26512 ft | 464 kts | 174° |
| 2026-04-15 09:05 | 44.86293 | 5.19052 | 26855 ft | 467 kts | 174° |
| 2026-04-15 09:05 | 44.83041 | 5.19401 | 27181 ft | 471 kts | 175° |
| 2026-04-15 09:05 | 44.79760 | 5.19750 | 27532 ft | 474 kts | 175° |
| 2026-04-15 09:05 | 44.76465 | 5.20100 | 27879 ft | 477 kts | 175° |
| 2026-04-15 09:06 | 44.73151 | 5.20457 | 28225 ft | 480 kts | 175° |
| 2026-04-15 09:06 | 44.69831 | 5.21035 | 28555 ft | 481 kts | 166° |
| 2026-04-15 09:06 | 44.66677 | 5.22557 | 28869 ft | 480 kts | 151° |
| 2026-04-15 09:06 | 44.63883 | 5.25086 | 29172 ft | 477 kts | 136° |
| 2026-04-15 09:07 | 44.61401 | 5.28124 | 29465 ft | 479 kts | 135° |
| 2026-04-15 09:07 | 44.58936 | 5.31203 | 29761 ft | 482 kts | 134° |
| 2026-04-15 09:07 | 44.56467 | 5.34317 | 30048 ft | 485 kts | 134° |
| 2026-04-15 09:07 | 44.53952 | 5.37498 | 30260 ft | 488 kts | 134° |
| 2026-04-15 09:08 | 44.51422 | 5.40695 | 30488 ft | 491 kts | 134° |
| 2026-04-15 09:08 | 44.48874 | 5.43899 | 30755 ft | 493 kts | 134° |
| 2026-04-15 09:08 | 44.46312 | 5.47102 | 31025 ft | 495 kts | 134° |
| 2026-04-15 09:08 | 44.43740 | 5.50303 | 31401 ft | 494 kts | 134° |
| 2026-04-15 09:09 | 44.41178 | 5.53488 | 31781 ft | 493 kts | 134° |
| 2026-04-15 09:09 | 44.38619 | 5.56672 | 32137 ft | 492 kts | 134° |
| 2026-04-15 09:09 | 44.36061 | 5.59850 | 32494 ft | 491 kts | 134° |
| 2026-04-15 09:09 | 44.33490 | 5.63013 | 32864 ft | 491 kts | 134° |
| 2026-04-15 09:10 | 44.30914 | 5.66144 | 33072 ft | 492 kts | 134° |
| 2026-04-15 09:10 | 44.28335 | 5.69254 | 33122 ft | 487 kts | 134° |
| 2026-04-15 09:10 | 44.23222 | 5.75385 | 33113 ft | 483 kts | 133° |
| 2026-04-15 09:11 | 44.18131 | 5.81521 | 33118 ft | 483 kts | 133° |
| 2026-04-15 09:11 | 44.13078 | 5.87600 | 33110 ft | 483 kts | 134° |
| 2026-04-15 09:12 | 44.07987 | 5.93697 | 33108 ft | 483 kts | 133° |
| 2026-04-15 09:12 | 44.02900 | 5.99783 | 33111 ft | 482 kts | 133° |
| 2026-04-15 09:13 | 43.97809 | 6.05868 | 33115 ft | 482 kts | 133° |
| 2026-04-15 09:13 | 43.92723 | 6.11928 | 33131 ft | 482 kts | 133° |
| 2026-04-15 09:14 | 43.87636 | 6.17968 | 33119 ft | 481 kts | 133° |
| 2026-04-15 09:14 | 43.82555 | 6.23990 | 33098 ft | 481 kts | 132° |
| 2026-04-15 09:15 | 43.77462 | 6.30017 | 33083 ft | 482 kts | 132° |
| 2026-04-15 09:15 | 43.73189 | 6.35061 | 33084 ft | 482 kts | 132° |
| 2026-04-15 09:16 | 43.68084 | 6.41073 | 33086 ft | 483 kts | 132° |
| 2026-04-15 09:16 | 43.62987 | 6.47050 | 33124 ft | 483 kts | 132° |
| 2026-04-15 09:17 | 43.57872 | 6.53043 | 33130 ft | 482 kts | 132° |
| 2026-04-15 09:17 | 43.52761 | 6.59025 | 33111 ft | 481 kts | 132° |
| 2026-04-15 09:18 | 43.47665 | 6.64985 | 33109 ft | 481 kts | 132° |
| 2026-04-15 09:18 | 43.42554 | 6.70935 | 33133 ft | 481 kts | 132° |
| 2026-04-15 09:19 | 43.37434 | 6.76877 | 33122 ft | 481 kts | 132° |
| 2026-04-15 09:19 | 43.32319 | 6.82797 | 33113 ft | 481 kts | 132° |
| 2026-04-15 09:20 | 43.27211 | 6.88702 | 33102 ft | 477 kts | 132° |
| 2026-04-15 09:20 | 43.22134 | 6.94558 | 33089 ft | 476 kts | 132° |
| 2026-04-15 09:21 | 43.17055 | 7.00410 | 33093 ft | 477 kts | 132° |
| 2026-04-15 09:21 | 43.11978 | 7.06248 | 33095 ft | 477 kts | 132° |
| 2026-04-15 09:22 | 43.06881 | 7.12084 | 33094 ft | 477 kts | 132° |
| 2026-04-15 09:22 | 43.01861 | 7.17924 | 33095 ft | 475 kts | 129° |
| 2026-04-15 09:23 | 42.97133 | 7.24141 | 33111 ft | 471 kts | 126° |
| 2026-04-15 09:23 | 42.92518 | 7.30533 | 33107 ft | 471 kts | 126° |
| 2026-04-15 09:24 | 42.87836 | 7.36812 | 33104 ft | 473 kts | 128° |
| 2026-04-15 09:24 | 42.83056 | 7.42990 | 33099 ft | 473 kts | 128° |
| 2026-04-15 09:25 | 42.78259 | 7.49138 | 33096 ft | 473 kts | 128° |
| 2026-04-15 09:25 | 42.73477 | 7.55317 | 33108 ft | 473 kts | 128° |
| 2026-04-15 09:26 | 42.68707 | 7.61479 | 33127 ft | 472 kts | 129° |
| 2026-04-15 09:26 | 42.63968 | 7.67612 | 33109 ft | 469 kts | 129° |
| 2026-04-15 09:27 | 42.59265 | 7.73679 | 32943 ft | 470 kts | 129° |
| 2026-04-15 09:27 | 42.56852 | 7.76782 | 31845 ft | 477 kts | 129° |
| 2026-04-15 09:27 | 42.54452 | 7.79864 | 31191 ft | 473 kts | 129° |
| 2026-04-15 09:28 | 42.52062 | 7.82923 | 30508 ft | 471 kts | 130° |
| 2026-04-15 09:28 | 42.49690 | 7.85957 | 29762 ft | 468 kts | 130° |
| 2026-04-15 09:28 | 42.47367 | 7.88927 | 29111 ft | 462 kts | 130° |
| 2026-04-15 09:28 | 42.45042 | 7.91898 | 28454 ft | 457 kts | 131° |
| 2026-04-15 09:29 | 42.42742 | 7.94834 | 27808 ft | 453 kts | 131° |
| 2026-04-15 09:29 | 42.40462 | 7.97740 | 27187 ft | 448 kts | 132° |
| 2026-04-15 09:29 | 42.38202 | 8.00622 | 26530 ft | 444 kts | 133° |
| 2026-04-15 09:29 | 42.35966 | 8.03470 | 25921 ft | 439 kts | 133° |
| 2026-04-15 09:30 | 42.33750 | 8.06290 | 25299 ft | 434 kts | 133° |
| 2026-04-15 09:30 | 42.31565 | 8.09071 | 24701 ft | 430 kts | 133° |
| 2026-04-15 09:30 | 42.29398 | 8.11827 | 24130 ft | 425 kts | 134° |
| 2026-04-15 09:30 | 42.27254 | 8.14547 | 23555 ft | 421 kts | 134° |
| 2026-04-15 09:31 | 42.25132 | 8.17233 | 22983 ft | 415 kts | 133° |
| 2026-04-15 09:31 | 42.23044 | 8.19868 | 22457 ft | 408 kts | 134° |
| 2026-04-15 09:31 | 42.20979 | 8.22466 | 21968 ft | 402 kts | 134° |
| 2026-04-15 09:31 | 42.18952 | 8.25020 | 21469 ft | 396 kts | 134° |
| 2026-04-15 09:32 | 42.16954 | 8.27544 | 20997 ft | 391 kts | 134° |
| 2026-04-15 09:32 | 42.14981 | 8.30038 | 20520 ft | 387 kts | 134° |
| 2026-04-15 09:32 | 42.13021 | 8.32513 | 20022 ft | 384 kts | 134° |
| 2026-04-15 09:32 | 42.11195 | 8.34816 | 19575 ft | 381 kts | 134° |
| 2026-04-15 09:33 | 42.09266 | 8.37248 | 19063 ft | 379 kts | 134° |
| 2026-04-15 09:33 | 42.07343 | 8.39670 | 18563 ft | 377 kts | 134° |
| 2026-04-15 09:33 | 42.05429 | 8.42079 | 18011 ft | 376 kts | 134° |
| 2026-04-15 09:33 | 42.03520 | 8.44476 | 17501 ft | 374 kts | 134° |
| 2026-04-15 09:34 | 42.01617 | 8.46857 | 16986 ft | 371 kts | 134° |
| 2026-04-15 09:34 | 41.99733 | 8.49211 | 16496 ft | 369 kts | 134° |
| 2026-04-15 09:34 | 41.97858 | 8.51558 | 15991 ft | 367 kts | 134° |
| 2026-04-15 09:34 | 41.96019 | 8.53864 | 15503 ft | 365 kts | 134° |
| 2026-04-15 09:35 | 41.94165 | 8.56187 | 15010 ft | 364 kts | 134° |
| 2026-04-15 09:35 | 41.92317 | 8.58499 | 14516 ft | 362 kts | 134° |
| 2026-04-15 09:35 | 41.90479 | 8.60787 | 14131 ft | 358 kts | 134° |
| 2026-04-15 09:35 | 41.88664 | 8.63040 | 13894 ft | 354 kts | 134° |
| 2026-04-15 09:36 | 41.86864 | 8.65277 | 13645 ft | 352 kts | 134° |
| 2026-04-15 09:36 | 41.85062 | 8.67515 | 13383 ft | 350 kts | 134° |
| 2026-04-15 09:36 | 41.83282 | 8.69728 | 13128 ft | 348 kts | 134° |
| 2026-04-15 09:36 | 41.81508 | 8.71931 | 12875 ft | 346 kts | 134° |
| 2026-04-15 09:37 | 41.79750 | 8.74110 | 12488 ft | 343 kts | 134° |
| 2026-04-15 09:37 | 41.77999 | 8.76278 | 12131 ft | 342 kts | 134° |
| 2026-04-15 09:37 | 41.76375 | 8.78583 | 11878 ft | 338 kts | 126° |
| 2026-04-15 09:37 | 41.74921 | 8.81056 | 11621 ft | 337 kts | 125° |
| 2026-04-15 09:38 | 41.73468 | 8.83509 | 11362 ft | 336 kts | 126° |
| 2026-04-15 09:38 | 41.72033 | 8.85918 | 11131 ft | 334 kts | 126° |
| 2026-04-15 09:38 | 41.70587 | 8.88340 | 10874 ft | 333 kts | 126° |
| 2026-04-15 09:38 | 41.69145 | 8.90754 | 10617 ft | 332 kts | 126° |
| 2026-04-15 09:39 | 41.67706 | 8.93162 | 10375 ft | 330 kts | 126° |
| 2026-04-15 09:39 | 41.66274 | 8.95557 | 10146 ft | 328 kts | 126° |
| 2026-04-15 09:39 | 41.64856 | 8.97925 | 9956 ft | 322 kts | 126° |
| 2026-04-15 09:39 | 41.63501 | 9.00181 | 9732 ft | 300 kts | 126° |
| 2026-04-15 09:40 | 41.62231 | 9.02295 | 9348 ft | 286 kts | 126° |
| 2026-04-15 09:40 | 41.61000 | 9.04349 | 8719 ft | 280 kts | 126° |
| 2026-04-15 09:40 | 41.59790 | 9.06371 | 8192 ft | 277 kts | 126° |
| 2026-04-15 09:40 | 41.58583 | 9.08387 | 8078 ft | 279 kts | 126° |
| 2026-04-15 09:41 | 41.57369 | 9.10414 | 7971 ft | 280 kts | 125° |
| 2026-04-15 09:41 | 41.56158 | 9.12437 | 7820 ft | 278 kts | 125° |
| 2026-04-15 09:41 | 41.54947 | 9.14448 | 7698 ft | 278 kts | 125° |
| 2026-04-15 09:41 | 41.53733 | 9.16460 | 7567 ft | 277 kts | 125° |
| 2026-04-15 09:42 | 41.52566 | 9.18388 | 7440 ft | 256 kts | 124° |
| 2026-04-15 09:42 | 41.51480 | 9.20183 | 7325 ft | 244 kts | 125° |
| 2026-04-15 09:42 | 41.50439 | 9.21919 | 7201 ft | 240 kts | 124° |
| 2026-04-15 09:42 | 41.49431 | 9.23655 | 7063 ft | 227 kts | 120° |
| 2026-04-15 09:43 | 41.48660 | 9.25403 | 6943 ft | 210 kts | 111° |
| 2026-04-15 09:43 | 41.48121 | 9.27122 | 6846 ft | 197 kts | 104° |
| 2026-04-15 09:43 | 41.47768 | 9.28833 | 6720 ft | 192 kts | 97° |
| 2026-04-15 09:43 | 41.47549 | 9.30577 | 6596 ft | 190 kts | 95° |
| 2026-04-15 09:44 | 41.47339 | 9.32314 | 6479 ft | 190 kts | 95° |
| 2026-04-15 09:44 | 41.47128 | 9.34049 | 6274 ft | 188 kts | 95° |
| 2026-04-15 09:44 | 41.47043 | 9.35769 | 5906 ft | 185 kts | 81° |
| 2026-04-15 09:44 | 41.47306 | 9.37422 | 5570 ft | 181 kts | 66° |
| 2026-04-15 09:45 | 41.47875 | 9.38891 | 5239 ft | 177 kts | 52° |
| 2026-04-15 09:45 | 41.49531 | 9.40858 | 4649 ft | 173 kts | 27° |
| 2026-04-15 09:45 | 41.52643 | 9.41499 | 3912 ft | 171 kts | 356° |
| 2026-04-15 09:45 | 41.53842 | 9.41299 | 3977 ft | 176 kts | 355° |
| 2026-04-15 09:46 | 41.55057 | 9.41026 | 3990 ft | 177 kts | 352° |
| 2026-04-15 09:46 | 41.56248 | 9.40677 | 4011 ft | 177 kts | 349° |
| 2026-04-15 09:46 | 41.57710 | 9.40133 | 4006 ft | 178 kts | 346° |
| 2026-04-15 09:46 | 41.61311 | 9.38212 | 4005 ft | 182 kts | 339° |
| 2026-04-15 09:47 | 41.62415 | 9.37432 | 4013 ft | 181 kts | 335° |
| 2026-04-15 09:47 | 41.63516 | 9.36553 | 4000 ft | 184 kts | 328° |
| 2026-04-15 09:47 | 41.64343 | 9.35232 | 3998 ft | 192 kts | 296° |
| 2026-04-15 09:47 | 41.64475 | 9.33437 | 4004 ft | 202 kts | 261° |
| 2026-04-15 09:48 | 41.63784 | 9.31792 | 4015 ft | 208 kts | 233° |
| 2026-04-15 09:48 | 41.62867 | 9.30286 | 3999 ft | 210 kts | 232° |
| 2026-04-15 09:48 | 41.61931 | 9.28761 | 3924 ft | 212 kts | 232° |
| 2026-04-15 09:48 | 41.61008 | 9.27252 | 3663 ft | 209 kts | 232° |
| 2026-04-15 09:49 | 41.60097 | 9.25763 | 3360 ft | 210 kts | 233° |
| 2026-04-15 09:49 | 41.59160 | 9.24230 | 3033 ft | 217 kts | 233° |
| 2026-04-15 09:49 | 41.58207 | 9.22675 | 2689 ft | 213 kts | 231° |
| 2026-04-15 09:49 | 41.57285 | 9.21171 | 2363 ft | 205 kts | 232° |
| 2026-04-15 09:50 | 41.56414 | 9.19748 | 2055 ft | 190 kts | 232° |
| 2026-04-15 09:50 | 41.55612 | 9.18439 | 1774 ft | 176 kts | 231° |
| 2026-04-15 09:50 | 41.54864 | 9.17190 | 1545 ft | 169 kts | 236° |
| 2026-04-15 09:50 | 41.54247 | 9.15902 | 1281 ft | 162 kts | 238° |
| 2026-04-15 09:51 | 41.53600 | 9.14678 | 992 ft | 161 kts | 231° |
| 2026-04-15 09:51 | 41.52882 | 9.13562 | 771 ft | 155 kts | 229° |
| 2026-04-15 09:51 | 41.52163 | 9.12528 | 542 ft | 148 kts | 228° |
| 2026-04-15 09:51 | 41.51479 | 9.11520 | 315 ft | 144 kts | 227° |
| 2026-04-15 09:52 | 41.50812 | 9.10549 | 93 ft | 137 kts | 227° |
| 2026-04-15 09:52 | 41.50323 | 9.09836 | 65 ft | 45 kts | 228° |
| 2026-04-15 09:52 | 41.50206 | 9.09680 | 69 ft | 8 kts | 180° |
| 2026-04-15 09:52 | 41.50181 | 9.09711 | 67 ft | 7 kts | 138° |
| 2026-04-15 09:53 | 41.50131 | 9.09771 | 66 ft | 12 kts | 138° |
| 2026-04-15 09:53 | 41.50060 | 9.09814 | 66 ft | 13 kts | 212° |
| 2026-04-15 09:53 | 41.50023 | 9.09759 | 63 ft | 3 kts | 230° |
| 2026-04-15 09:53 | 41.49995 | 9.09741 | 69 ft | 4 kts | 164° |
| 2026-04-15 09:54 | 41.49985 | 9.09770 | 69 ft | 3 kts | 121° |
| 2026-04-15 09:54 | 41.49972 | 9.09787 | 63 ft | 2 kts | 138° |
| 2026-04-15 09:54 | 41.49967 | 9.09793 | 65 ft | 0 kts | 137° |